Corbera de Llobregat, Spain
Current Conditions -  °F | °C
As of 1:00 PM on Thursday 30 Oct 2014 (Local Time) from LELL Reporting Station
Few Clouds Few Clouds  
Wind Chill: 73°   Ceiling: Unl
Heat Index: 73°   Visibility: 6mi
Dew Point: 57°   Wind: 3mph
Humidity: 57%   Direction: 190°S
Pressure: 30.18"   Gusts: NA
Location:  41.42°N, 1.92°E
Report Text: LELL 301200Z 19003KT 9000 FEW025 23/14 Q1022
Loading
Personal Weather Stations






























Interactive Weather Map
Tropical Storm Tracking
New forecast layout! Learn more

10-Day Weather Forecast

Advertisements
Track Severe Weather on mobile